Time;durP1;ratioP1;P1;durP2;ratioP2;P2;SDS_P1;SDS_P2;PMS_P1;PMS_P2;Temp;Humidity;BMP_temperature;BMP_pressure;BME280_temperature;BME280_humidity;BME280_pressure;Samples;Min_cycle;Max_cycle;Signal;HPM_P1;HPM_P2
2023/09/07 00:01:31;;;;;;;2.17;0.70;;;;;;;11.54;67.61;99908.66;5069091;28;20183;-37
2023/09/07 00:03:57;;;;;;;1.00;0.52;;;;;;;11.52;67.64;99910.47;5072831;28;20036;-38
2023/09/07 00:06:23;;;;;;;1.25;0.70;;;;;;;11.34;68.12;99886.78;5068846;28;20143;-38
2023/09/07 00:08:49;;;;;;;1.88;0.60;;;;;;;11.47;68.35;99918.44;5063802;28;20045;-37
2023/09/07 00:11:15;;;;;;;0.70;0.50;;;;;;;11.44;68.13;99918.56;5075896;28;20040;-39
2023/09/07 00:13:41;;;;;;;1.15;0.57;;;;;;;11.42;67.96;99917.75;5073513;28;20039;-38
2023/09/07 00:16:07;;;;;;;1.17;0.60;;;;;;;11.40;68.75;99915.22;5073800;28;20139;-37
2023/09/07 00:18:34;;;;;;;1.73;0.52;;;;;;;11.39;68.11;99917.88;5072369;28;20052;-38
2023/09/07 00:21:00;;;;;;;1.75;0.80;;;;;;;11.07;68.91;99871.25;5077253;28;20547;-38
2023/09/07 00:23:26;;;;;;;1.27;0.80;;;;;;;11.34;68.99;99919.78;5064536;28;20563;-38
2023/09/07 00:25:53;;;;;;;0.95;0.50;;;;;;;11.32;68.96;99921.56;5093550;28;20047;-38
2023/09/07 00:28:19;;;;;;;2.95;0.93;;;;;;;11.13;69.30;99899.66;5046911;28;20052;-38
2023/09/07 00:30:45;;;;;;;2.33;0.70;;;;;;;11.27;69.57;99934.75;5072593;28;20084;-37
2023/09/07 00:33:11;;;;;;;1.05;0.70;;;;;;;11.27;69.52;99928.69;5074276;28;20426;-37
2023/09/07 00:35:37;;;;;;;1.65;0.60;;;;;;;11.27;69.24;99923.47;5064199;28;20529;-37
2023/09/07 00:38:03;;;;;;;1.30;0.52;;;;;;;11.26;70.05;99922.63;5063753;28;20045;-37
2023/09/07 00:40:30;;;;;;;1.60;0.70;;;;;;;11.22;69.92;99922.78;5061911;28;20040;-37
2023/09/07 00:42:56;;;;;;;5.93;0.80;;;;;;;11.15;70.25;99913.50;5085817;28;20040;-38
2023/09/07 00:45:22;;;;;;;2.80;0.77;;;;;;;11.19;69.86;99926.34;5065949;28;20428;-38
2023/09/07 00:47:48;;;;;;;2.45;1.35;;;;;;;11.00;70.80;99896.59;5060192;28;20044;-38
2023/09/07 00:50:16;;;;;;;4.47;0.70;;;;;;;11.19;70.78;99939.34;5079240;28;20051;-38
2023/09/07 00:52:43;;;;;;;1.35;0.70;;;;;;;11.18;70.95;99937.66;5074852;28;20092;-39
2023/09/07 00:55:09;;;;;;;2.67;0.70;;;;;;;11.18;71.05;99945.47;5049079;28;20123;-38
2023/09/07 00:57:39;;;;;;;1.15;0.60;;;;;;;11.10;71.67;99937.03;5074306;28;20515;-37
2023/09/07 01:00:07;;;;;;;1.45;0.80;;;;;;;11.15;71.81;99952.53;5078924;28;20443;-37
2023/09/07 01:02:34;;;;;;;2.70;0.80;;;;;;;10.87;71.98;99905.72;5079092;28;20040;-38
2023/09/07 01:05:04;;;;;;;1.30;0.65;;;;;;;11.16;72.63;99965.47;5045727;28;20052;-37
2023/09/07 01:07:43;;;;;;;2.55;0.70;;;;;;;11.14;72.72;99962.06;5071461;28;20051;-38
2023/09/07 01:10:09;;;;;;;1.65;0.65;;;;;;;11.15;72.87;99965.53;5068045;28;20036;-38
2023/09/07 01:12:35;;;;;;;1.40;0.73;;;;;;;11.13;72.42;99965.56;5075318;28;20539;-38
2023/09/07 01:15:04;;;;;;;0.75;0.50;;;;;;;10.95;73.32;99934.91;5069966;28;20051;-38
2023/09/07 01:17:32;;;;;;;1.95;0.90;;;;;;;10.90;73.13;99934.22;5072274;28;20071;-38
2023/09/07 01:19:59;;;;;;;3.10;0.80;;;;;;;11.07;73.69;99964.91;5051770;28;20040;-37
2023/09/07 01:22:26;;;;;;;2.05;0.80;;;;;;;11.05;74.27;99962.34;5056309;28;20640;-39
2023/09/07 01:24:52;;;;;;;1.55;0.80;;;;;;;11.04;73.87;99971.06;5066946;28;20036;-39
2023/09/07 01:27:18;;;;;;;4.55;0.90;;;;;;;10.85;74.33;99936.13;5037479;28;20040;-38
2023/09/07 01:29:44;;;;;;;2.38;0.85;;;;;;;11.03;74.40;99965.03;5081545;28;20032;-37
2023/09/07 01:32:10;;;;;;;1.50;1.00;;;;;;;10.97;74.59;99965.22;5066157;28;20052;-38
2023/09/07 01:34:37;;;;;;;1.80;0.95;;;;;;;11.00;74.93;99979.84;5071410;28;20044;-37
2023/09/07 01:37:03;;;;;;;2.80;1.10;;;;;;;10.97;75.20;99975.63;5056985;28;20500;-37
2023/09/07 01:39:29;;;;;;;1.88;0.90;;;;;;;10.95;75.18;99973.94;5058030;28;20128;-37
2023/09/07 01:41:55;;;;;;;2.63;1.10;;;;;;;10.94;75.46;99980.91;5070870;28;20855;-37
2023/09/07 01:44:20;;;;;;;3.45;1.23;;;;;;;10.92;76.27;99980.09;5074176;28;20542;-37
2023/09/07 01:46:46;;;;;;;3.22;1.33;;;;;;;10.92;76.14;99985.31;5075946;28;20181;-38
2023/09/07 01:49:12;;;;;;;3.15;1.33;;;;;;;10.92;76.33;99989.66;5071746;28;20067;-38
2023/09/07 01:51:38;;;;;;;2.28;1.70;;;;;;;10.91;76.13;99987.94;5072840;28;20047;-39
2023/09/07 01:54:05;;;;;;;2.42;1.23;;;;;;;10.92;76.46;100000.06;5064179;28;20096;-39
2023/09/07 01:56:31;;;;;;;4.55;1.30;;;;;;;10.66;76.58;99937.59;5074292;28;20040;-37
2023/09/07 01:58:57;;;;;;;2.42;1.00;;;;;;;11.09;76.46;100003.00;5072605;28;20045;-38
2023/09/07 02:01:29;;;;;;;1.83;1.27;;;;;;;11.00;76.24;99972.91;5065793;28;20426;-39
2023/09/07 02:03:56;;;;;;;2.75;1.35;;;;;;;11.07;76.34;99978.78;5076398;28;20059;-38
2023/09/07 02:06:22;;;;;;;2.75;1.00;;;;;;;11.26;76.09;100008.50;5078311;28;20082;-37
2023/09/07 02:08:48;;;;;;;1.80;0.82;;;;;;;11.27;76.01;100012.81;5061232;28;20064;-38
2023/09/07 02:11:15;;;;;;;2.63;1.08;;;;;;;11.29;75.96;100005.81;5062834;28;20043;-39
2023/09/07 02:13:42;;;;;;;1.92;0.80;;;;;;;11.29;76.15;100005.81;5039913;28;20043;-38
2023/09/07 02:16:10;;;;;;;1.85;0.90;;;;;;;11.29;76.25;100008.44;5069702;28;20378;-38
2023/09/07 02:18:37;;;;;;;2.45;1.58;;;;;;;11.24;76.37;100007.72;5068537;28;20045;-38
2023/09/07 02:21:23;;;;;;;2.38;0.93;;;;;;;11.18;76.21;100007.06;5056890;28;20127;-38
2023/09/07 02:23:49;;;;;;;1.40;0.80;;;;;;;11.13;76.58;100003.75;5034807;28;20657;-38
2023/09/07 02:26:14;;;;;;;1.60;0.80;;;;;;;11.10;76.46;100011.63;5059703;28;20039;-38
2023/09/07 02:28:40;;;;;;;1.10;0.77;;;;;;;11.05;76.87;100015.25;5073218;28;20040;-37
2023/09/07 02:31:08;;;;;;;2.67;0.77;;;;;;;11.03;76.74;100011.00;5069533;28;20127;-39
2023/09/07 02:33:35;;;;;;;1.05;0.60;;;;;;;11.00;77.22;100032.75;5070176;28;20602;-38
2023/09/07 02:36:01;;;;;;;1.80;0.80;;;;;;;10.99;77.53;100025.81;5055061;28;20040;-38
2023/09/07 02:38:27;;;;;;;1.63;0.80;;;;;;;10.95;77.31;100034.63;5070959;28;20051;-37
2023/09/07 02:40:55;;;;;;;5.30;0.80;;;;;;;10.95;77.54;100031.19;5048773;28;20074;-38
2023/09/07 02:43:22;;;;;;;1.30;0.75;;;;;;;10.92;77.63;100032.13;5063075;28;20110;-37
2023/09/07 02:45:50;;;;;;;3.13;1.52;;;;;;;10.74;77.42;100009.25;5085460;28;20159;-38
2023/09/07 02:48:16;;;;;;;2.33;1.13;;;;;;;10.89;77.55;100036.56;5072092;28;20131;-37
2023/09/07 02:50:42;;;;;;;1.63;0.90;;;;;;;10.91;77.80;100042.56;5048606;28;20430;-37
2023/09/07 02:53:08;;;;;;;1.83;0.90;;;;;;;10.87;78.01;100034.03;5059854;28;20080;-38
2023/09/07 02:55:37;;;;;;;1.30;0.90;;;;;;;10.89;77.55;100039.16;5048371;28;20589;-38
2023/09/07 02:58:03;;;;;;;7.57;1.17;;;;;;;10.88;77.75;100037.47;5068015;28;20044;-37
2023/09/07 03:00:29;;;;;;;3.35;1.00;;;;;;;10.71;78.01;100022.38;5076329;28;20678;-38
2023/09/07 03:02:55;;;;;;;2.05;0.80;;;;;;;10.86;78.20;100042.72;5074857;28;20052;-38
2023/09/07 03:05:21;;;;;;;4.10;1.48;;;;;;;10.88;78.05;100046.13;5059982;28;20440;-38
2023/09/07 03:07:47;;;;;;;0.85;0.60;;;;;;;10.82;78.35;100046.31;5070287;28;20047;-38
2023/09/07 03:10:15;;;;;;;4.82;1.50;;;;;;;10.91;78.11;100055.59;5060743;28;20761;-37
2023/09/07 03:12:43;;;;;;;1.70;0.80;;;;;;;10.88;77.91;100058.28;5071813;28;20129;-39
2023/09/07 03:15:09;;;;;;;1.42;0.90;;;;;;;10.84;78.40;100052.31;5065370;28;20047;-38
2023/09/07 03:17:35;;;;;;;2.95;0.77;;;;;;;10.85;77.95;100047.97;5068727;28;20044;-39
2023/09/07 03:20:13;;;;;;;2.85;0.63;;;;;;;10.82;78.54;100054.13;5067563;28;20039;-39
2023/09/07 03:22:44;;;;;;;3.03;1.07;;;;;;;10.81;78.65;100052.41;5064729;28;20051;-38
2023/09/07 03:25:11;;;;;;;3.00;0.60;;;;;;;10.76;78.09;100049.09;5028533;28;20429;-37
2023/09/07 03:27:38;;;;;;;5.55;0.50;;;;;;;10.63;78.07;100029.53;5048998;28;20557;-38
2023/09/07 03:30:06;;;;;;;1.02;0.52;;;;;;;10.64;77.79;100026.03;5063384;28;20204;-38
2023/09/07 03:32:33;;;;;;;1.15;0.60;;;;;;;10.80;77.42;100060.25;5073364;28;20133;-38
2023/09/07 03:35:00;;;;;;;2.65;0.60;;;;;;;10.81;78.07;100062.81;5068395;28;20043;-39
2023/09/07 03:37:29;;;;;;;2.90;0.80;;;;;;;10.79;78.03;100067.19;5066578;28;20572;-39
2023/09/07 03:39:58;;;;;;;2.05;0.70;;;;;;;10.78;78.44;100065.47;5064667;28;20088;-39
2023/09/07 03:42:23;;;;;;;1.48;0.60;;;;;;;10.80;77.75;100075.84;5065445;28;20051;-40
2023/09/07 03:44:50;;;;;;;2.75;0.60;;;;;;;10.80;78.18;100075.84;5070693;28;20044;-42
2023/09/07 03:47:16;;;;;;;8.45;1.67;;;;;;;10.81;78.47;100083.63;5038911;28;20035;-43
2023/09/07 03:49:42;;;;;;;1.35;0.85;;;;;;;10.83;78.27;100083.59;5067861;28;20127;-43
2023/09/07 03:52:09;;;;;;;4.38;0.68;;;;;;;10.85;78.43;100076.56;5057311;28;20071;-42
2023/09/07 03:54:35;;;;;;;3.70;0.80;;;;;;;10.67;78.02;100051.97;5054231;28;20076;-45
2023/09/07 03:57:02;;;;;;;4.10;0.65;;;;;;;10.89;78.21;100089.44;5061745;28;20416;-42
2023/09/07 03:59:30;;;;;;;1.77;0.82;;;;;;;10.91;78.22;100089.41;5063268;28;20393;-40
2023/09/07 04:01:56;;;;;;;2.42;0.88;;;;;;;10.94;77.17;100097.09;5069994;28;20040;-50
2023/09/07 04:04:22;;;;;;;1.65;0.82;;;;;;;10.96;77.64;100093.56;5070586;28;20054;-45
2023/09/07 04:06:48;;;;;;;2.45;0.80;;;;;;;11.00;77.51;100099.53;5054670;28;20040;-47
2023/09/07 04:09:14;;;;;;;4.10;1.63;;;;;;;11.04;77.14;100096.78;5063197;28;20034;-41
2023/09/07 04:11:40;;;;;;;6.07;1.40;;;;;;;11.08;77.26;100100.19;5068531;28;20046;-44
2023/09/07 04:14:07;;;;;;;2.53;1.45;;;;;;;10.89;76.98;100063.44;5056043;28;20070;-42
2023/09/07 04:16:33;;;;;;;1.77;0.68;;;;;;;11.19;76.91;100110.25;5072853;28;20044;-44
2023/09/07 04:18:59;;;;;;;1.98;0.77;;;;;;;11.20;76.73;100110.19;5045083;28;20480;-43
2023/09/07 04:21:25;;;;;;;5.28;1.08;;;;;;;11.20;76.34;100104.16;5058700;28;20036;-43
2023/09/07 04:23:52;;;;;;;2.58;0.93;;;;;;;11.30;75.80;100114.25;5073591;28;20040;-41
2023/09/07 04:26:18;;;;;;;2.47;1.17;;;;;;;11.14;75.46;100092.19;5047161;28;20531;-41
2023/09/07 04:28:44;;;;;;;3.58;1.00;;;;;;;11.20;75.49;100083.34;5067866;28;20044;-42
2023/09/07 04:31:11;;;;;;;1.52;0.93;;;;;;;11.43;75.62;100122.53;5077355;28;20032;-43
2023/09/07 04:33:38;;;;;;;1.42;0.80;;;;;;;11.32;75.19;100096.81;5075491;28;20042;-43
2023/09/07 04:36:11;;;;;;;4.03;0.85;;;;;;;11.51;74.57;100124.91;5063789;28;20123;-43
2023/09/07 04:38:39;;;;;;;1.65;0.88;;;;;;;11.42;74.60;100106.06;5075439;28;20423;-43
2023/09/07 04:41:14;;;;;;;3.40;1.45;;;;;;;11.65;74.49;100127.91;5067164;28;20570;-45
2023/09/07 04:43:44;;;;;;;3.75;0.95;;;;;;;11.80;74.06;100132.66;5072472;28;20109;-43
2023/09/07 04:46:12;;;;;;;1.10;0.60;;;;;;;11.86;73.26;100140.28;5042481;28;20128;-43
2023/09/07 04:48:38;;;;;;;2.95;0.90;;;;;;;11.65;73.16;100091.47;5075589;28;20104;-45
2023/09/07 04:51:06;;;;;;;2.80;0.93;;;;;;;12.06;72.64;100143.09;5073687;28;20047;-44
2023/09/07 04:53:35;;;;;;;1.93;1.13;;;;;;;12.05;72.42;100143.13;5072426;28;20492;-43
2023/09/07 04:56:02;;;;;;;2.72;1.00;;;;;;;12.24;71.76;100150.31;5039117;28;20400;-43
2023/09/07 04:58:29;;;;;;;3.05;1.40;;;;;;;12.30;71.66;100146.63;5075819;28;20063;-44
2023/09/07 05:01:01;;;;;;;2.83;0.90;;;;;;;12.34;71.09;100148.25;5074682;28;20182;-45
2023/09/07 05:03:27;;;;;;;1.75;0.70;;;;;;;12.32;71.11;100121.38;5056074;28;20119;-44
2023/09/07 05:05:53;;;;;;;8.30;1.15;;;;;;;12.52;70.53;100150.22;5068430;28;20145;-44
2023/09/07 05:08:20;;;;;;;1.65;0.70;;;;;;;12.59;70.55;100149.09;5068531;28;20086;-44
2023/09/07 05:10:45;;;;;;;10.90;1.35;;;;;;;12.69;69.92;100149.63;5069624;28;20037;-44
2023/09/07 05:13:11;;;;;;;2.13;0.80;;;;;;;12.77;69.58;100144.16;5075974;28;20047;-42
2023/09/07 05:15:49;;;;;;;3.03;1.23;;;;;;;12.83;69.45;100151.72;5056283;28;20062;-47
2023/09/07 05:18:17;;;;;;;4.20;1.30;;;;;;;13.01;68.85;100151.94;5050072;28;20635;-47
2023/09/07 05:20:44;;;;;;;3.13;0.98;;;;;;;13.22;68.45;100145.09;5073062;28;20040;-43
2023/09/07 05:23:20;;;;;;;4.68;0.98;;;;;;;13.42;67.63;100145.19;5075720;28;20142;-43
2023/09/07 05:25:48;;;;;;;1.02;0.63;;;;;;;13.54;66.96;100149.09;5055898;28;20491;-43
2023/09/07 05:28:16;;;;;;;1.90;0.77;;;;;;;13.64;66.56;100152.19;5059433;28;20054;-43
2023/09/07 05:30:43;;;;;;;3.20;0.80;;;;;;;13.68;66.12;100153.75;5041428;28;20036;-42
2023/09/07 05:33:09;;;;;;;1.20;0.57;;;;;;;13.71;66.11;100146.63;5040445;28;20454;-45
2023/09/07 05:35:35;;;;;;;1.20;0.90;;;;;;;13.73;65.81;100149.19;5076172;28;20044;-44
2023/09/07 05:38:02;;;;;;;2.20;1.00;;;;;;;13.80;65.66;100150.66;5079231;28;20067;-42
2023/09/07 05:40:28;;;;;;;2.70;1.20;;;;;;;14.04;65.29;100148.81;5063537;28;20041;-44
2023/09/07 05:42:54;;;;;;;2.45;0.70;;;;;;;14.24;64.48;100130.50;5058074;28;20738;-44
2023/09/07 05:45:20;;;;;;;1.65;1.10;;;;;;;14.68;63.78;100155.69;5069836;28;20041;-43
2023/09/07 05:47:46;;;;;;;3.45;1.10;;;;;;;14.96;62.96;100154.47;5043502;28;20400;-44
2023/09/07 05:50:13;;;;;;;3.63;1.23;;;;;;;15.12;62.37;100147.63;5075889;28;20058;-47
2023/09/07 05:52:39;;;;;;;2.28;1.13;;;;;;;15.38;61.63;100147.28;5075587;28;20044;-46
2023/09/07 05:55:05;;;;;;;0.82;0.50;;;;;;;15.73;60.54;100155.25;5079051;28;20104;-46
2023/09/07 05:57:32;;;;;;;1.00;0.50;;;;;;;16.01;59.31;100161.72;5072607;28;20042;-47
2023/09/07 05:59:57;;;;;;;1.58;0.50;;;;;;;16.36;58.07;100156.50;5075492;28;20039;-44
2023/09/07 06:02:23;;;;;;;2.53;1.10;;;;;;;16.76;57.16;100161.44;5074972;28;20072;-44
2023/09/07 06:04:49;;;;;;;2.22;1.10;;;;;;;17.57;55.49;100171.06;5059832;28;20139;-45
2023/09/07 06:07:16;;;;;;;2.95;0.80;;;;;;;18.44;53.62;100171.38;5071928;28;20068;-47
2023/09/07 06:09:42;;;;;;;1.48;0.60;;;;;;;19.34;51.89;100166.75;5070984;28;20119;-48
2023/09/07 06:12:07;;;;;;;5.93;1.80;;;;;;;20.27;49.99;100172.16;5057743;28;20518;-45
2023/09/07 06:14:34;;;;;;;1.33;0.60;;;;;;;20.79;47.75;100139.56;5056963;28;20040;-45
2023/09/07 06:17:00;;;;;;;3.45;0.75;;;;;;;21.59;46.08;100183.28;5058046;28;20036;-46
2023/09/07 06:19:25;;;;;;;3.45;0.70;;;;;;;22.40;44.42;100174.56;5053730;28;20032;-45
2023/09/07 06:21:51;;;;;;;3.72;1.13;;;;;;;22.94;42.77;100181.09;5076121;28;20436;-44
2023/09/07 06:24:17;;;;;;;2.35;0.70;;;;;;;23.66;41.07;100193.06;5068868;28;20041;-44
2023/09/07 06:26:44;;;;;;;4.25;0.75;;;;;;;24.13;40.03;100183.06;5069951;28;20056;-44
2023/09/07 06:29:10;;;;;;;2.47;0.75;;;;;;;24.74;38.42;100187.59;5061033;28;20050;-46
2023/09/07 06:31:36;;;;;;;2.47;0.85;;;;;;;25.54;36.96;100184.22;5071297;28;20488;-46
2023/09/07 06:34:02;;;;;;;2.55;0.80;;;;;;;26.05;35.80;100173.41;5077466;28;20042;-48
2023/09/07 06:36:30;;;;;;;3.63;1.10;;;;;;;26.61;34.87;100186.88;5077886;28;20052;-44
2023/09/07 06:38:56;;;;;;;4.70;1.20;;;;;;;26.96;34.14;100172.91;5058353;28;20051;-49
2023/09/07 06:41:22;;;;;;;4.57;0.85;;;;;;;27.20;33.63;100191.97;5057386;28;20040;-49
2023/09/07 06:43:48;;;;;;;5.50;0.90;;;;;;;26.84;33.21;100190.91;5049710;28;20043;-49
2023/09/07 06:46:14;;;;;;;3.72;1.30;;;;;;;27.27;32.67;100198.38;5072220;28;20040;-47
2023/09/07 06:48:40;;;;;;;7.90;0.90;;;;;;;28.07;31.62;100192.31;5078190;28;20028;-49
2023/09/07 06:51:07;;;;;;;2.35;1.00;;;;;;;28.74;30.28;100204.31;5057708;28;20048;-48
2023/09/07 06:53:34;;;;;;;5.97;1.67;;;;;;;29.63;29.40;100201.31;5073506;28;20170;-47
2023/09/07 06:56:01;;;;;;;6.55;0.90;;;;;;;30.49;28.13;100194.66;5073988;28;20705;-45
2023/09/07 06:58:28;;;;;;;9.20;1.10;;;;;;;31.15;27.34;100193.56;5066107;28;20668;-49
2023/09/07 07:00:59;;;;;;;4.32;0.93;;;;;;;31.35;26.27;100194.84;5052883;28;20040;-48
2023/09/07 07:03:27;;;;;;;1.52;0.80;;;;;;;31.04;26.02;100194.78;5064841;28;20052;-46
2023/09/07 07:05:53;;;;;;;1.85;0.90;;;;;;;31.87;25.32;100202.38;5075460;28;20555;-46
2023/09/07 07:08:19;;;;;;;4.60;1.20;;;;;;;32.61;24.72;100201.66;5076917;28;20043;-47
2023/09/07 07:10:45;;;;;;;5.90;1.23;;;;;;;33.23;24.11;100200.63;5075720;28;20066;-46
2023/09/07 07:13:11;;;;;;;1.77;1.00;;;;;;;33.68;23.61;100180.66;5041451;28;20045;-47
2023/09/07 07:15:38;;;;;;;3.72;1.40;;;;;;;34.36;22.65;100197.22;5066855;28;20075;-45
2023/09/07 07:18:08;;;;;;;4.53;0.88;;;;;;;34.59;22.06;100167.31;5073001;28;20510;-46
2023/09/07 07:20:36;;;;;;;1.35;0.80;;;;;;;35.27;21.70;100206.28;5073332;28;20042;-49
2023/09/07 07:23:03;;;;;;;1.92;0.82;;;;;;;33.97;21.44;100205.72;5059804;28;20465;-53
2023/09/07 07:25:33;;;;;;;2.28;1.00;;;;;;;34.56;21.40;100200.09;5059530;28;20047;-50
2023/09/07 07:28:08;;;;;;;2.75;1.17;;;;;;;34.98;20.46;100185.69;5055712;28;20032;-46
2023/09/07 07:30:36;;;;;;;5.75;1.00;;;;;;;34.92;20.64;100207.25;5077872;28;20040;-47
2023/09/07 07:33:06;;;;;;;1.30;0.80;;;;;;;34.77;21.15;100205.50;5073380;28;20041;-45
2023/09/07 07:35:34;;;;;;;5.90;2.67;;;;;;;35.23;20.73;100200.41;5056147;28;20048;-48
2023/09/07 07:38:01;;;;;;;1.95;1.02;;;;;;;35.28;20.39;100206.06;5054557;28;20041;-46
2023/09/07 07:40:27;;;;;;;3.43;1.00;;;;;;;35.30;20.53;100208.56;5039646;28;20040;-46
2023/09/07 07:42:53;;;;;;;13.00;1.45;;;;;;;35.04;20.98;100211.09;5056613;28;20291;-46
2023/09/07 07:45:21;;;;;;;14.95;1.50;;;;;;;35.43;20.72;100200.53;5047492;28;20040;-46
2023/09/07 07:47:49;;;;;;;5.00;1.60;;;;;;;35.38;20.62;100181.38;5072544;28;20657;-48
2023/09/07 07:50:16;;;;;;;3.15;0.90;;;;;;;35.41;20.43;100199.06;5059507;28;20063;-47
2023/09/07 07:52:44;;;;;;;6.32;1.23;;;;;;;35.09;20.65;100195.94;5075204;28;20072;-46
2023/09/07 07:55:10;;;;;;;4.80;1.80;;;;;;;35.13;20.70;100191.78;5066436;28;20044;-45
2023/09/07 07:57:36;;;;;;;4.18;1.30;;;;;;;34.60;21.14;100181.66;5073608;28;20068;-45
2023/09/07 08:00:04;;;;;;;4.55;2.38;;;;;;;34.32;20.92;100189.72;5038853;28;20475;-44
2023/09/07 08:02:40;;;;;;;4.72;1.48;;;;;;;32.89;22.15;100193.03;5072648;28;20052;-47
2023/09/07 08:05:09;;;;;;;3.80;1.05;;;;;;;31.69;23.29;100185.66;5063389;28;20139;-47
2023/09/07 08:07:36;;;;;;;3.87;0.80;;;;;;;30.15;24.51;100173.31;5052683;28;20055;-47
2023/09/07 08:10:03;;;;;;;3.78;0.88;;;;;;;28.83;25.74;100146.34;5075112;28;20336;-44
2023/09/07 08:12:29;;;;;;;18.77;1.55;;;;;;;27.83;27.33;100177.88;5077042;28;20066;-46
2023/09/07 08:14:55;;;;;;;10.60;1.30;;;;;;;26.44;29.02;100150.25;5061987;28;20457;-47
2023/09/07 08:17:24;;;;;;;6.47;1.65;;;;;;;27.38;28.51;100175.97;5058957;28;20541;-44
2023/09/07 08:19:55;;;;;;;6.97;0.90;;;;;;;27.15;28.46;100178.22;5073760;28;20074;-48
2023/09/07 08:22:21;;;;;;;7.60;1.00;;;;;;;26.35;29.42;100172.44;5072140;28;20480;-45
2023/09/07 08:24:48;;;;;;;6.43;1.40;;;;;;;25.86;29.99;100162.72;5068985;28;20252;-46
2023/09/07 08:27:18;;;;;;;3.80;0.85;;;;;;;26.02;29.64;100174.50;5058659;28;20045;-48
2023/09/07 08:29:51;;;;;;;1.85;0.80;;;;;;;26.06;29.21;100165.28;5072587;28;20424;-47
2023/09/07 08:32:18;;;;;;;4.93;0.70;;;;;;;26.94;28.02;100170.41;5076938;28;20036;-49
2023/09/07 08:34:44;;;;;;;3.45;0.65;;;;;;;29.05;25.46;100177.91;5076036;28;20040;-44
2023/09/07 08:37:10;;;;;;;3.20;0.90;;;;;;;28.07;25.60;100170.09;5069323;28;20255;-46
2023/09/07 08:39:36;;;;;;;5.10;0.80;;;;;;;27.93;25.67;100166.13;5069962;28;20044;-47
2023/09/07 08:42:04;;;;;;;8.52;1.25;;;;;;;29.12;24.63;100172.75;5075696;28;20092;-47
2023/09/07 08:44:30;;;;;;;2.25;0.70;;;;;;;31.68;22.55;100176.75;5072439;28;20037;-47
2023/09/07 08:46:57;;;;;;;3.50;0.82;;;;;;;32.44;21.27;100156.25;5040589;28;20775;-46
2023/09/07 08:49:23;;;;;;;6.47;0.80;;;;;;;31.96;21.28;100179.78;5072164;28;20035;-46
2023/09/07 08:51:50;;;;;;;6.90;1.10;;;;;;;31.73;21.27;100176.22;5073381;28;20047;-48
2023/09/07 08:54:17;;;;;;;13.65;1.65;;;;;;;32.08;21.09;100170.28;5060141;28;20044;-48
2023/09/07 08:56:45;;;;;;;7.95;1.33;;;;;;;33.69;19.99;100171.56;5072519;28;20040;-46
2023/09/07 08:59:11;;;;;;;5.75;0.70;;;;;;;32.86;20.06;100172.69;5067421;28;20389;-46
2023/09/07 09:01:37;;;;;;;4.68;0.70;;;;;;;30.66;21.68;100174.88;5076808;28;20038;-47
2023/09/07 09:04:03;;;;;;;5.18;1.00;;;;;;;31.13;21.69;100174.97;5076090;28;20036;-49
2023/09/07 09:06:29;;;;;;;7.13;1.45;;;;;;;32.98;20.15;100175.75;5069399;28;20040;-47
2023/09/07 09:08:56;;;;;;;3.03;0.90;;;;;;;34.49;19.11;100174.06;5077403;28;20676;-49
2023/09/07 09:11:23;;;;;;;4.97;1.00;;;;;;;35.38;17.98;100175.97;5076202;28;20060;-47
2023/09/07 09:13:51;;;;;;;6.35;1.00;;;;;;;36.11;17.20;100164.31;5072356;28;20428;-48
2023/09/07 09:16:17;;;;;;;10.88;1.45;;;;;;;36.27;16.90;100160.44;5074500;28;20085;-48
2023/09/07 09:18:58;;;;;;;4.00;0.63;;;;;;;33.99;18.26;100163.19;5080110;28;20058;-49
2023/09/07 09:21:26;;;;;;;6.82;1.20;;;;;;;31.56;20.49;100165.50;5077148;28;20036;-46
2023/09/07 09:23:53;;;;;;;2.07;0.80;;;;;;;31.69;20.48;100172.22;5055564;28;20036;-48
2023/09/07 09:26:21;;;;;;;5.38;1.15;;;;;;;33.39;18.98;100179.69;5079194;28;20035;-48
2023/09/07 09:28:47;;;;;;;3.25;1.00;;;;;;;33.98;18.66;100166.91;5053972;28;20065;-46
2023/09/07 09:31:14;;;;;;;7.75;0.90;;;;;;;35.13;17.90;100159.34;5080385;28;20036;-46
2023/09/07 09:33:42;;;;;;;13.30;1.63;;;;;;;35.95;17.29;100174.72;5078701;28;20492;-52
2023/09/07 09:36:08;;;;;;;5.10;1.00;;;;;;;36.97;16.26;100169.75;5067355;28;20473;-46
2023/09/07 09:38:35;;;;;;;1.90;1.40;;;;;;;37.91;15.87;100142.91;5079205;28;20047;-48
2023/09/07 09:41:03;;;;;;;2.45;0.80;;;;;;;38.95;15.17;100158.59;5059401;28;20805;-49
2023/09/07 09:43:29;;;;;;;8.00;2.47;;;;;;;38.94;14.97;100165.91;5075217;28;20040;-45
2023/09/07 09:45:56;;;;;;;2.40;1.23;;;;;;;36.39;16.34;100137.06;5070115;28;20044;-47
2023/09/07 09:48:22;;;;;;;8.65;0.90;;;;;;;34.01;18.08;100160.31;5062325;28;20051;-45
2023/09/07 09:50:50;;;;;;;0.90;0.73;;;;;;;33.29;18.80;100157.56;5078954;28;20452;-48
2023/09/07 09:53:18;;;;;;;4.33;1.50;;;;;;;34.76;17.79;100157.88;5075415;28;20048;-48
2023/09/07 09:55:48;;;;;;;4.13;0.88;;;;;;;34.90;17.97;100160.69;5067495;28;20047;-47
2023/09/07 09:58:15;;;;;;;8.50;0.90;;;;;;;33.16;19.16;100152.84;5075266;28;20124;-45
2023/09/07 10:00:45;;;;;;;8.00;0.90;;;;;;;31.14;20.68;100149.75;5069986;28;20070;-46
2023/09/07 10:03:15;;;;;;;2.30;0.98;;;;;;;29.55;22.41;100145.03;5072792;28;21681;-45
2023/09/07 10:05:44;;;;;;;1.25;0.70;;;;;;;28.34;23.28;100150.47;5044724;28;20064;-44
2023/09/07 10:08:16;;;;;;;3.85;2.13;;;;;;;27.29;24.21;100158.19;5067831;28;20893;-46
2023/09/07 10:10:44;;;;;;;4.65;2.20;;;;;;;26.49;25.22;100156.00;5061903;28;20110;-47
2023/09/07 10:13:13;;;;;;;1.77;1.20;;;;;;;27.54;24.39;100151.31;5076578;28;20044;-44
2023/09/07 10:15:39;;;;;;;1.50;1.10;;;;;;;30.75;21.57;100156.88;5058805;28;20044;-51
2023/09/07 10:18:12;;;;;;;1.52;1.10;;;;;;;33.12;19.44;100153.38;5011387;28;20039;-46
2023/09/07 10:20:58;;;;;;;2.15;1.17;;;;;;;35.01;18.11;100157.44;5032391;28;20045;-44
2023/09/07 10:23:39;;;;;;;5.03;1.30;;;;;;;36.68;16.69;100160.22;5078395;28;20047;-50
2023/09/07 10:26:09;;;;;;;1.85;0.90;;;;;;;37.63;16.57;100162.25;5069115;28;20040;-46
2023/09/07 10:28:35;;;;;;;5.72;1.77;;;;;;;38.54;15.70;100162.75;5072709;28;20051;-48
2023/09/07 10:31:06;;;;;;;3.30;1.00;;;;;;;38.91;14.85;100141.91;5057501;28;20068;-47
2023/09/07 10:33:34;;;;;;;4.47;1.23;;;;;;;39.38;14.23;100153.09;5066950;28;20516;-44
2023/09/07 10:36:01;;;;;;;5.72;2.10;;;;;;;39.86;14.22;100138.66;5064482;28;20139;-50
2023/09/07 10:38:27;;;;;;;;;;;;;;;40.19;14.02;100145.28;5069392;28;20539;-45
2023/09/07 10:40:57;;;;;;;4.10;1.02;;;;;;;37.57;15.46;100152.31;5075304;28;19917;-48
2023/09/07 10:43:31;;;;;;;3.20;1.23;;;;;;;34.53;17.30;100135.66;5082569;28;20036;-44
2023/09/07 10:45:58;;;;;;;4.13;1.00;;;;;;;32.19;18.76;100132.22;5069324;28;20060;-44
2023/09/07 10:48:25;;;;;;;6.55;1.05;;;;;;;31.96;18.92;100140.28;5073400;28;20127;-46
2023/09/07 10:50:52;;;;;;;5.90;1.15;;;;;;;32.11;18.92;100120.66;5070582;28;20039;-45
2023/09/07 10:53:29;;;;;;;2.83;1.23;;;;;;;31.80;19.45;100139.53;5049314;28;20110;-46
2023/09/07 10:55:58;;;;;;;5.53;1.45;;;;;;;33.82;18.24;100125.84;5062077;28;20719;-46
2023/09/07 10:58:30;;;;;;;6.03;0.90;;;;;;;34.62;17.84;100141.75;5065175;28;20047;-49
2023/09/07 11:00:57;;;;;;;3.20;0.90;;;;;;;34.99;17.77;100141.41;5056339;28;20045;-47
2023/09/07 11:03:26;;;;;;;5.00;0.80;;;;;;;35.07;17.63;100143.94;5066114;28;20292;-48
2023/09/07 11:05:55;;;;;;;2.10;0.77;;;;;;;33.94;18.06;100140.50;5061049;28;20095;-47
2023/09/07 11:08:22;;;;;;;7.35;1.88;;;;;;;31.52;19.67;100133.78;5070000;28;20040;-49
2023/09/07 11:10:50;;;;;;;2.35;0.90;;;;;;;30.98;20.31;100144.44;5046763;28;20527;-46
2023/09/07 11:13:16;;;;;;;5.57;1.02;;;;;;;33.01;19.06;100141.19;5077514;28;20517;-51
2023/09/07 11:15:42;;;;;;;5.07;1.05;;;;;;;34.19;18.38;100147.22;5056111;28;20082;-47
2023/09/07 11:18:09;;;;;;;4.97;0.90;;;;;;;35.41;17.13;100144.97;5063095;28;20040;-46
2023/09/07 11:20:36;;;;;;;1.13;0.70;;;;;;;36.27;16.35;100148.75;5068991;28;20036;-44
2023/09/07 11:23:02;;;;;;;3.17;0.98;;;;;;;37.24;16.07;100152.41;5069492;28;20532;-49
2023/09/07 11:25:36;;;;;;;1.70;1.30;;;;;;;37.80;15.47;100140.03;5071484;28;20465;-47
2023/09/07 11:28:04;;;;;;;2.85;1.00;;;;;;;38.54;15.24;100149.16;5048636;28;20029;-45